sensor_id;sensor_type;location;lat;lon;timestamp;P1;durP1;ratioP1;P2;durP2;ratioP2
7517;SDS011;3800;48.922;9.444;2023-05-29T00:01:25;4.30;;;3.70;;
7517;SDS011;3800;48.922;9.444;2023-05-29T00:03:53;4.43;;;3.73;;
7517;SDS011;3800;48.922;9.444;2023-05-29T00:06:21;5.83;;;4.33;;
7517;SDS011;3800;48.922;9.444;2023-05-29T00:08:50;4.17;;;3.47;;
7517;SDS011;3800;48.922;9.444;2023-05-29T00:11:19;4.73;;;3.80;;
7517;SDS011;3800;48.922;9.444;2023-05-29T00:13:47;4.47;;;3.73;;
7517;SDS011;3800;48.922;9.444;2023-05-29T00:16:15;5.20;;;3.43;;
7517;SDS011;3800;48.922;9.444;2023-05-29T00:18:44;7.20;;;3.70;;
7517;SDS011;3800;48.922;9.444;2023-05-29T00:21:13;5.00;;;3.47;;
7517;SDS011;3800;48.922;9.444;2023-05-29T00:23:41;5.03;;;3.60;;
7517;SDS011;3800;48.922;9.444;2023-05-29T00:26:09;6.97;;;3.60;;
7517;SDS011;3800;48.922;9.444;2023-05-29T00:28:38;6.47;;;3.40;;
7517;SDS011;3800;48.922;9.444;2023-05-29T00:31:06;5.07;;;3.23;;
7517;SDS011;3800;48.922;9.444;2023-05-29T00:33:35;8.17;;;3.93;;
7517;SDS011;3800;48.922;9.444;2023-05-29T00:36:04;5.87;;;3.77;;
7517;SDS011;3800;48.922;9.444;2023-05-29T00:38:32;5.03;;;3.50;;
7517;SDS011;3800;48.922;9.444;2023-05-29T00:41:00;4.83;;;3.17;;
7517;SDS011;3800;48.922;9.444;2023-05-29T00:43:29;6.00;;;3.50;;
7517;SDS011;3800;48.922;9.444;2023-05-29T00:45:57;5.67;;;3.80;;
7517;SDS011;3800;48.922;9.444;2023-05-29T00:48:26;6.27;;;3.47;;
7517;SDS011;3800;48.922;9.444;2023-05-29T00:50:54;5.30;;;3.70;;
7517;SDS011;3800;48.922;9.444;2023-05-29T00:53:22;4.43;;;3.40;;
7517;SDS011;3800;48.922;9.444;2023-05-29T00:55:51;6.87;;;3.70;;
7517;SDS011;3800;48.922;9.444;2023-05-29T00:58:20;4.80;;;3.53;;
7517;SDS011;3800;48.922;9.444;2023-05-29T01:00:47;6.20;;;3.53;;
7517;SDS011;3800;48.922;9.444;2023-05-29T01:03:16;5.73;;;3.50;;
7517;SDS011;3800;48.922;9.444;2023-05-29T01:05:45;5.50;;;3.60;;
7517;SDS011;3800;48.922;9.444;2023-05-29T01:08:13;5.87;;;3.57;;
7517;SDS011;3800;48.922;9.444;2023-05-29T01:10:41;4.27;;;3.27;;
7517;SDS011;3800;48.922;9.444;2023-05-29T01:13:15;6.50;;;3.70;;
7517;SDS011;3800;48.922;9.444;2023-05-29T01:15:46;5.07;;;3.57;;
7517;SDS011;3800;48.922;9.444;2023-05-29T01:18:25;6.00;;;3.80;;
7517;SDS011;3800;48.922;9.444;2023-05-29T01:21:23;4.87;;;3.90;;
7517;SDS011;3800;48.922;9.444;2023-05-29T01:23:52;6.53;;;3.63;;
7517;SDS011;3800;48.922;9.444;2023-05-29T01:27:00;5.40;;;3.53;;
7517;SDS011;3800;48.922;9.444;2023-05-29T01:29:18;5.60;;;3.53;;
7517;SDS011;3800;48.922;9.444;2023-05-29T01:31:46;4.80;;;3.83;;
7517;SDS011;3800;48.922;9.444;2023-05-29T01:34:15;5.27;;;3.50;;
7517;SDS011;3800;48.922;9.444;2023-05-29T01:36:44;5.73;;;3.50;;
7517;SDS011;3800;48.922;9.444;2023-05-29T01:39:12;6.20;;;3.30;;
7517;SDS011;3800;48.922;9.444;2023-05-29T01:41:41;4.77;;;3.40;;
7517;SDS011;3800;48.922;9.444;2023-05-29T01:44:10;4.40;;;3.03;;
7517;SDS011;3800;48.922;9.444;2023-05-29T01:46:38;5.77;;;3.70;;
7517;SDS011;3800;48.922;9.444;2023-05-29T01:49:07;7.40;;;3.27;;
7517;SDS011;3800;48.922;9.444;2023-05-29T01:51:35;5.00;;;3.60;;
7517;SDS011;3800;48.922;9.444;2023-05-29T01:54:04;3.70;;;3.20;;
7517;SDS011;3800;48.922;9.444;2023-05-29T01:56:33;4.23;;;3.40;;
7517;SDS011;3800;48.922;9.444;2023-05-29T01:59:02;7.40;;;3.63;;
7517;SDS011;3800;48.922;9.444;2023-05-29T02:01:31;4.10;;;3.40;;
7517;SDS011;3800;48.922;9.444;2023-05-29T02:03:58;5.03;;;3.13;;
7517;SDS011;3800;48.922;9.444;2023-05-29T02:06:27;5.63;;;3.53;;
7517;SDS011;3800;48.922;9.444;2023-05-29T02:08:55;6.30;;;3.80;;
7517;SDS011;3800;48.922;9.444;2023-05-29T02:11:24;5.43;;;3.47;;
7517;SDS011;3800;48.922;9.444;2023-05-29T02:13:53;4.80;;;3.30;;
7517;SDS011;3800;48.922;9.444;2023-05-29T02:16:22;5.13;;;3.43;;
7517;SDS011;3800;48.922;9.444;2023-05-29T02:18:51;4.77;;;3.63;;
7517;SDS011;3800;48.922;9.444;2023-05-29T02:21:19;3.83;;;3.03;;
7517;SDS011;3800;48.922;9.444;2023-05-29T02:23:47;5.27;;;3.30;;
7517;SDS011;3800;48.922;9.444;2023-05-29T02:26:16;5.57;;;3.60;;
7517;SDS011;3800;48.922;9.444;2023-05-29T02:28:45;6.07;;;3.83;;
7517;SDS011;3800;48.922;9.444;2023-05-29T02:31:13;5.83;;;4.07;;
7517;SDS011;3800;48.922;9.444;2023-05-29T02:33:41;6.03;;;3.73;;
7517;SDS011;3800;48.922;9.444;2023-05-29T02:36:10;5.93;;;4.10;;
7517;SDS011;3800;48.922;9.444;2023-05-29T02:38:38;8.93;;;3.93;;
7517;SDS011;3800;48.922;9.444;2023-05-29T02:41:07;7.87;;;4.10;;
7517;SDS011;3800;48.922;9.444;2023-05-29T02:43:35;4.77;;;3.87;;
7517;SDS011;3800;48.922;9.444;2023-05-29T02:46:03;5.83;;;4.03;;
7517;SDS011;3800;48.922;9.444;2023-05-29T02:48:32;5.13;;;3.77;;
7517;SDS011;3800;48.922;9.444;2023-05-29T02:51:00;4.67;;;3.63;;
7517;SDS011;3800;48.922;9.444;2023-05-29T02:53:28;6.87;;;3.90;;
7517;SDS011;3800;48.922;9.444;2023-05-29T02:55:57;5.87;;;3.73;;
7517;SDS011;3800;48.922;9.444;2023-05-29T02:58:25;4.37;;;3.80;;
7517;SDS011;3800;48.922;9.444;2023-05-29T03:00:54;4.70;;;3.83;;
7517;SDS011;3800;48.922;9.444;2023-05-29T03:03:23;5.97;;;4.33;;
7517;SDS011;3800;48.922;9.444;2023-05-29T03:05:51;4.43;;;3.80;;
7517;SDS011;3800;48.922;9.444;2023-05-29T03:08:19;6.17;;;4.37;;
7517;SDS011;3800;48.922;9.444;2023-05-29T03:10:48;7.20;;;4.17;;
7517;SDS011;3800;48.922;9.444;2023-05-29T03:13:17;5.13;;;3.80;;
7517;SDS011;3800;48.922;9.444;2023-05-29T03:15:45;5.53;;;3.53;;
7517;SDS011;3800;48.922;9.444;2023-05-29T03:18:13;6.27;;;3.83;;
7517;SDS011;3800;48.922;9.444;2023-05-29T03:20:42;4.67;;;3.70;;
7517;SDS011;3800;48.922;9.444;2023-05-29T03:23:11;6.70;;;4.50;;
7517;SDS011;3800;48.922;9.444;2023-05-29T03:25:39;5.43;;;4.03;;
7517;SDS011;3800;48.922;9.444;2023-05-29T03:28:07;5.27;;;3.80;;
7517;SDS011;3800;48.922;9.444;2023-05-29T03:30:35;5.97;;;4.00;;
7517;SDS011;3800;48.922;9.444;2023-05-29T03:33:04;6.63;;;4.50;;
7517;SDS011;3800;48.922;9.444;2023-05-29T03:35:33;7.13;;;4.37;;
7517;SDS011;3800;48.922;9.444;2023-05-29T03:38:01;7.00;;;3.90;;
7517;SDS011;3800;48.922;9.444;2023-05-29T03:40:29;6.17;;;4.40;;
7517;SDS011;3800;48.922;9.444;2023-05-29T03:42:57;5.30;;;3.77;;
7517;SDS011;3800;48.922;9.444;2023-05-29T03:45:26;5.17;;;3.83;;
7517;SDS011;3800;48.922;9.444;2023-05-29T03:47:55;4.27;;;3.87;;
7517;SDS011;3800;48.922;9.444;2023-05-29T03:50:24;5.23;;;4.13;;
7517;SDS011;3800;48.922;9.444;2023-05-29T03:52:52;7.20;;;4.00;;
7517;SDS011;3800;48.922;9.444;2023-05-29T03:55:21;4.93;;;4.23;;
7517;SDS011;3800;48.922;9.444;2023-05-29T03:57:49;6.00;;;3.93;;
7517;SDS011;3800;48.922;9.444;2023-05-29T04:00:17;4.90;;;4.30;;
7517;SDS011;3800;48.922;9.444;2023-05-29T04:02:46;7.90;;;4.57;;
7517;SDS011;3800;48.922;9.444;2023-05-29T04:05:15;8.03;;;4.80;;
7517;SDS011;3800;48.922;9.444;2023-05-29T04:07:44;6.70;;;4.60;;
7517;SDS011;3800;48.922;9.444;2023-05-29T04:10:12;5.93;;;4.20;;
7517;SDS011;3800;48.922;9.444;2023-05-29T04:12:40;5.67;;;4.37;;
7517;SDS011;3800;48.922;9.444;2023-05-29T04:15:09;5.50;;;3.80;;
7517;SDS011;3800;48.922;9.444;2023-05-29T04:17:38;5.67;;;4.00;;
7517;SDS011;3800;48.922;9.444;2023-05-29T04:20:06;5.80;;;4.10;;
7517;SDS011;3800;48.922;9.444;2023-05-29T04:22:36;5.60;;;4.30;;
7517;SDS011;3800;48.922;9.444;2023-05-29T04:25:04;7.80;;;4.23;;
7517;SDS011;3800;48.922;9.444;2023-05-29T04:27:33;5.90;;;4.40;;
7517;SDS011;3800;48.922;9.444;2023-05-29T04:30:04;6.03;;;4.37;;
7517;SDS011;3800;48.922;9.444;2023-05-29T04:32:33;6.50;;;4.13;;
7517;SDS011;3800;48.922;9.444;2023-05-29T04:35:01;6.67;;;4.40;;
7517;SDS011;3800;48.922;9.444;2023-05-29T04:37:30;7.33;;;5.30;;
7517;SDS011;3800;48.922;9.444;2023-05-29T04:39:59;5.57;;;4.30;;
7517;SDS011;3800;48.922;9.444;2023-05-29T04:42:27;7.63;;;4.30;;
7517;SDS011;3800;48.922;9.444;2023-05-29T04:44:56;6.23;;;4.47;;
7517;SDS011;3800;48.922;9.444;2023-05-29T04:47:24;6.23;;;4.43;;
7517;SDS011;3800;48.922;9.444;2023-05-29T04:49:53;6.63;;;4.07;;
7517;SDS011;3800;48.922;9.444;2023-05-29T04:52:21;6.73;;;4.33;;
7517;SDS011;3800;48.922;9.444;2023-05-29T04:54:50;6.40;;;4.53;;
7517;SDS011;3800;48.922;9.444;2023-05-29T04:57:19;7.07;;;4.30;;
7517;SDS011;3800;48.922;9.444;2023-05-29T04:59:48;6.60;;;4.50;;
7517;SDS011;3800;48.922;9.444;2023-05-29T05:02:16;6.23;;;4.07;;
7517;SDS011;3800;48.922;9.444;2023-05-29T05:04:45;6.17;;;3.87;;
7517;SDS011;3800;48.922;9.444;2023-05-29T05:07:13;7.60;;;4.73;;
7517;SDS011;3800;48.922;9.444;2023-05-29T05:09:42;7.23;;;4.73;;
7517;SDS011;3800;48.922;9.444;2023-05-29T05:12:11;5.50;;;4.37;;
7517;SDS011;3800;48.922;9.444;2023-05-29T05:14:39;5.83;;;3.80;;
7517;SDS011;3800;48.922;9.444;2023-05-29T05:17:08;7.73;;;4.27;;
7517;SDS011;3800;48.922;9.444;2023-05-29T05:19:37;6.80;;;4.57;;
7517;SDS011;3800;48.922;9.444;2023-05-29T05:22:05;4.80;;;4.03;;
7517;SDS011;3800;48.922;9.444;2023-05-29T05:24:34;5.20;;;3.97;;
7517;SDS011;3800;48.922;9.444;2023-05-29T05:27:03;5.97;;;4.03;;
7517;SDS011;3800;48.922;9.444;2023-05-29T05:29:32;5.50;;;4.50;;
7517;SDS011;3800;48.922;9.444;2023-05-29T05:32:00;6.47;;;4.67;;
7517;SDS011;3800;48.922;9.444;2023-05-29T05:34:29;6.17;;;4.17;;
7517;SDS011;3800;48.922;9.444;2023-05-29T05:36:58;11.40;;;4.43;;
7517;SDS011;3800;48.922;9.444;2023-05-29T05:39:26;5.70;;;4.17;;
7517;SDS011;3800;48.922;9.444;2023-05-29T05:41:54;6.87;;;4.57;;
7517;SDS011;3800;48.922;9.444;2023-05-29T05:44:22;6.57;;;4.60;;
7517;SDS011;3800;48.922;9.444;2023-05-29T05:46:51;5.23;;;4.00;;
7517;SDS011;3800;48.922;9.444;2023-05-29T05:49:19;6.93;;;4.70;;
7517;SDS011;3800;48.922;9.444;2023-05-29T05:51:47;4.97;;;4.10;;
7517;SDS011;3800;48.922;9.444;2023-05-29T05:54:16;8.27;;;4.77;;
7517;SDS011;3800;48.922;9.444;2023-05-29T05:56:44;6.57;;;4.20;;
7517;SDS011;3800;48.922;9.444;2023-05-29T05:59:13;6.20;;;4.37;;
7517;SDS011;3800;48.922;9.444;2023-05-29T06:01:41;6.17;;;4.57;;
7517;SDS011;3800;48.922;9.444;2023-05-29T06:04:09;6.90;;;4.13;;
7517;SDS011;3800;48.922;9.444;2023-05-29T06:06:37;4.43;;;3.80;;
7517;SDS011;3800;48.922;9.444;2023-05-29T06:09:06;9.57;;;4.00;;
7517;SDS011;3800;48.922;9.444;2023-05-29T06:11:34;6.30;;;4.43;;
7517;SDS011;3800;48.922;9.444;2023-05-29T06:14:03;6.50;;;4.30;;
7517;SDS011;3800;48.922;9.444;2023-05-29T06:16:31;5.73;;;4.10;;
7517;SDS011;3800;48.922;9.444;2023-05-29T06:18:59;5.53;;;4.37;;
7517;SDS011;3800;48.922;9.444;2023-05-29T06:21:27;7.27;;;4.53;;
7517;SDS011;3800;48.922;9.444;2023-05-29T06:23:55;6.77;;;4.37;;
7517;SDS011;3800;48.922;9.444;2023-05-29T06:26:24;6.50;;;4.30;;
7517;SDS011;3800;48.922;9.444;2023-05-29T06:28:53;5.10;;;4.10;;
7517;SDS011;3800;48.922;9.444;2023-05-29T06:31:21;5.87;;;4.03;;
7517;SDS011;3800;48.922;9.444;2023-05-29T06:33:50;6.87;;;4.60;;
7517;SDS011;3800;48.922;9.444;2023-05-29T06:36:18;6.90;;;4.60;;
7517;SDS011;3800;48.922;9.444;2023-05-29T06:38:47;5.70;;;3.93;;
7517;SDS011;3800;48.922;9.444;2023-05-29T06:41:15;6.00;;;4.73;;
7517;SDS011;3800;48.922;9.444;2023-05-29T06:43:43;8.00;;;4.40;;
7517;SDS011;3800;48.922;9.444;2023-05-29T06:46:11;7.73;;;4.50;;
7517;SDS011;3800;48.922;9.444;2023-05-29T06:48:39;7.43;;;4.07;;
7517;SDS011;3800;48.922;9.444;2023-05-29T06:51:08;8.63;;;4.10;;
7517;SDS011;3800;48.922;9.444;2023-05-29T06:53:37;6.90;;;4.00;;
7517;SDS011;3800;48.922;9.444;2023-05-29T06:56:05;5.80;;;3.80;;
7517;SDS011;3800;48.922;9.444;2023-05-29T06:58:33;4.77;;;4.07;;
7517;SDS011;3800;48.922;9.444;2023-05-29T07:01:01;10.77;;;4.50;;
7517;SDS011;3800;48.922;9.444;2023-05-29T07:03:30;8.77;;;4.60;;
7517;SDS011;3800;48.922;9.444;2023-05-29T07:05:58;6.20;;;4.10;;
7517;SDS011;3800;48.922;9.444;2023-05-29T07:08:27;5.27;;;4.17;;
7517;SDS011;3800;48.922;9.444;2023-05-29T07:10:55;6.67;;;4.40;;
7517;SDS011;3800;48.922;9.444;2023-05-29T07:13:24;5.27;;;3.77;;
7517;SDS011;3800;48.922;9.444;2023-05-29T07:15:51;6.20;;;4.47;;
7517;SDS011;3800;48.922;9.444;2023-05-29T07:18:19;6.03;;;4.30;;
7517;SDS011;3800;48.922;9.444;2023-05-29T07:20:48;5.03;;;3.93;;
7517;SDS011;3800;48.922;9.444;2023-05-29T07:23:17;5.53;;;3.57;;
7517;SDS011;3800;48.922;9.444;2023-05-29T07:25:45;5.73;;;3.80;;
7517;SDS011;3800;48.922;9.444;2023-05-29T07:28:14;6.60;;;4.33;;
7517;SDS011;3800;48.922;9.444;2023-05-29T07:30:42;5.73;;;3.97;;
7517;SDS011;3800;48.922;9.444;2023-05-29T07:33:10;5.80;;;4.10;;
7517;SDS011;3800;48.922;9.444;2023-05-29T07:35:39;6.57;;;4.07;;
7517;SDS011;3800;48.922;9.444;2023-05-29T07:38:07;6.57;;;4.27;;
7517;SDS011;3800;48.922;9.444;2023-05-29T07:40:35;6.97;;;4.00;;
7517;SDS011;3800;48.922;9.444;2023-05-29T07:43:03;5.33;;;3.93;;
7517;SDS011;3800;48.922;9.444;2023-05-29T07:45:32;5.73;;;3.80;;
7517;SDS011;3800;48.922;9.444;2023-05-29T07:48:01;5.90;;;3.70;;
7517;SDS011;3800;48.922;9.444;2023-05-29T07:50:30;7.57;;;4.20;;
7517;SDS011;3800;48.922;9.444;2023-05-29T07:52:59;5.83;;;4.10;;
7517;SDS011;3800;48.922;9.444;2023-05-29T07:55:26;5.50;;;3.97;;
7517;SDS011;3800;48.922;9.444;2023-05-29T07:57:55;6.30;;;4.07;;
7517;SDS011;3800;48.922;9.444;2023-05-29T08:00:24;7.97;;;4.20;;
7517;SDS011;3800;48.922;9.444;2023-05-29T08:02:53;6.77;;;4.20;;
7517;SDS011;3800;48.922;9.444;2023-05-29T08:05:22;5.57;;;4.30;;
7517;SDS011;3800;48.922;9.444;2023-05-29T08:07:51;8.03;;;4.20;;
7517;SDS011;3800;48.922;9.444;2023-05-29T08:10:19;6.17;;;4.23;;
7517;SDS011;3800;48.922;9.444;2023-05-29T08:12:47;6.70;;;4.13;;
7517;SDS011;3800;48.922;9.444;2023-05-29T08:15:15;6.43;;;4.33;;
7517;SDS011;3800;48.922;9.444;2023-05-29T08:17:44;5.93;;;4.20;;
7517;SDS011;3800;48.922;9.444;2023-05-29T08:20:12;5.47;;;4.50;;
7517;SDS011;3800;48.922;9.444;2023-05-29T08:22:41;5.43;;;4.20;;
7517;SDS011;3800;48.922;9.444;2023-05-29T08:25:09;7.37;;;4.40;;
7517;SDS011;3800;48.922;9.444;2023-05-29T08:27:38;6.23;;;3.90;;
7517;SDS011;3800;48.922;9.444;2023-05-29T08:30:07;5.10;;;4.20;;
7517;SDS011;3800;48.922;9.444;2023-05-29T08:32:37;5.00;;;4.03;;
7517;SDS011;3800;48.922;9.444;2023-05-29T08:35:05;7.63;;;4.10;;
7517;SDS011;3800;48.922;9.444;2023-05-29T08:37:33;8.33;;;4.00;;
7517;SDS011;3800;48.922;9.444;2023-05-29T08:40:02;6.30;;;4.20;;
7517;SDS011;3800;48.922;9.444;2023-05-29T08:42:32;6.53;;;4.63;;
7517;SDS011;3800;48.922;9.444;2023-05-29T08:45:01;8.37;;;4.07;;
7517;SDS011;3800;48.922;9.444;2023-05-29T08:47:28;5.50;;;3.93;;
7517;SDS011;3800;48.922;9.444;2023-05-29T08:49:56;5.73;;;4.00;;
7517;SDS011;3800;48.922;9.444;2023-05-29T08:52:24;5.13;;;3.77;;
7517;SDS011;3800;48.922;9.444;2023-05-29T08:54:53;5.73;;;3.93;;
7517;SDS011;3800;48.922;9.444;2023-05-29T08:57:21;5.13;;;3.83;;
7517;SDS011;3800;48.922;9.444;2023-05-29T08:59:51;7.10;;;4.00;;
7517;SDS011;3800;48.922;9.444;2023-05-29T09:02:18;6.67;;;3.97;;
7517;SDS011;3800;48.922;9.444;2023-05-29T09:04:46;4.60;;;3.57;;
7517;SDS011;3800;48.922;9.444;2023-05-29T09:07:17;7.43;;;3.63;;
7517;SDS011;3800;48.922;9.444;2023-05-29T09:09:46;7.10;;;4.10;;
7517;SDS011;3800;48.922;9.444;2023-05-29T09:12:14;5.73;;;3.40;;
7517;SDS011;3800;48.922;9.444;2023-05-29T09:14:43;5.73;;;3.50;;
7517;SDS011;3800;48.922;9.444;2023-05-29T09:17:12;4.20;;;3.63;;
7517;SDS011;3800;48.922;9.444;2023-05-29T09:19:39;5.73;;;3.70;;
7517;SDS011;3800;48.922;9.444;2023-05-29T09:22:09;9.30;;;4.10;;
7517;SDS011;3800;48.922;9.444;2023-05-29T09:24:37;5.57;;;3.53;;
7517;SDS011;3800;48.922;9.444;2023-05-29T09:27:06;6.13;;;3.60;;
7517;SDS011;3800;48.922;9.444;2023-05-29T09:29:38;5.10;;;3.90;;
7517;SDS011;3800;48.922;9.444;2023-05-29T09:32:06;7.03;;;3.53;;
7517;SDS011;3800;48.922;9.444;2023-05-29T09:34:36;5.00;;;3.47;;
7517;SDS011;3800;48.922;9.444;2023-05-29T09:37:05;6.00;;;4.00;;
7517;SDS011;3800;48.922;9.444;2023-05-29T09:39:44;6.07;;;3.70;;
7517;SDS011;3800;48.922;9.444;2023-05-29T09:42:19;6.17;;;3.90;;
7517;SDS011;3800;48.922;9.444;2023-05-29T09:44:49;5.07;;;3.70;;
7517;SDS011;3800;48.922;9.444;2023-05-29T09:47:19;6.27;;;3.83;;
7517;SDS011;3800;48.922;9.444;2023-05-29T09:49:48;5.93;;;4.00;;
7517;SDS011;3800;48.922;9.444;2023-05-29T09:52:20;6.00;;;3.50;;
7517;SDS011;3800;48.922;9.444;2023-05-29T09:54:47;5.80;;;3.57;;
7517;SDS011;3800;48.922;9.444;2023-05-29T09:57:16;6.77;;;3.30;;
7517;SDS011;3800;48.922;9.444;2023-05-29T09:59:45;6.40;;;3.40;;
7517;SDS011;3800;48.922;9.444;2023-05-29T10:02:13;8.20;;;3.70;;
7517;SDS011;3800;48.922;9.444;2023-05-29T10:04:42;5.10;;;3.40;;
7517;SDS011;3800;48.922;9.444;2023-05-29T10:07:26;4.90;;;3.60;;
7517;SDS011;3800;48.922;9.444;2023-05-29T10:09:58;7.33;;;3.50;;
7517;SDS011;3800;48.922;9.444;2023-05-29T10:12:27;6.53;;;3.77;;
7517;SDS011;3800;48.922;9.444;2023-05-29T10:14:56;7.33;;;3.40;;
7517;SDS011;3800;48.922;9.444;2023-05-29T10:17:25;6.07;;;3.53;;
7517;SDS011;3800;48.922;9.444;2023-05-29T10:19:53;7.67;;;3.30;;
7517;SDS011;3800;48.922;9.444;2023-05-29T10:22:21;6.80;;;3.60;;
7517;SDS011;3800;48.922;9.444;2023-05-29T10:24:49;6.00;;;3.20;;
7517;SDS011;3800;48.922;9.444;2023-05-29T10:27:18;6.57;;;3.03;;
7517;SDS011;3800;48.922;9.444;2023-05-29T10:29:50;7.13;;;3.40;;
7517;SDS011;3800;48.922;9.444;2023-05-29T10:36:02;5.37;;;2.70;;
7517;SDS011;3800;48.922;9.444;2023-05-29T10:38:15;6.27;;;3.23;;
7517;SDS011;3800;48.922;9.444;2023-05-29T10:40:45;6.60;;;3.43;;
7517;SDS011;3800;48.922;9.444;2023-05-29T10:45:55;4.27;;;2.90;;
7517;SDS011;3800;48.922;9.444;2023-05-29T10:48:39;5.73;;;3.30;;
7517;SDS011;3800;48.922;9.444;2023-05-29T10:51:07;4.73;;;3.00;;
7517;SDS011;3800;48.922;9.444;2023-05-29T10:53:35;4.50;;;3.00;;
7517;SDS011;3800;48.922;9.444;2023-05-29T10:56:03;4.27;;;3.03;;
7517;SDS011;3800;48.922;9.444;2023-05-29T10:58:32;6.20;;;3.27;;
7517;SDS011;3800;48.922;9.444;2023-05-29T11:01:00;5.97;;;3.43;;
7517;SDS011;3800;48.922;9.444;2023-05-29T11:03:30;6.23;;;3.40;;
7517;SDS011;3800;48.922;9.444;2023-05-29T11:06:00;5.73;;;3.30;;
7517;SDS011;3800;48.922;9.444;2023-05-29T11:08:35;6.20;;;3.20;;
7517;SDS011;3800;48.922;9.444;2023-05-29T11:14:00;6.37;;;3.20;;
7517;SDS011;3800;48.922;9.444;2023-05-29T11:16:36;5.03;;;2.93;;
7517;SDS011;3800;48.922;9.444;2023-05-29T11:19:06;4.60;;;3.10;;
7517;SDS011;3800;48.922;9.444;2023-05-29T11:21:38;3.63;;;3.03;;
7517;SDS011;3800;48.922;9.444;2023-05-29T11:24:26;5.77;;;2.80;;
7517;SDS011;3800;48.922;9.444;2023-05-29T11:26:55;3.50;;;3.00;;
7517;SDS011;3800;48.922;9.444;2023-05-29T11:29:23;3.20;;;2.63;;
7517;SDS011;3800;48.922;9.444;2023-05-29T11:31:58;4.67;;;2.80;;
7517;SDS011;3800;48.922;9.444;2023-05-29T11:34:26;3.03;;;2.73;;
7517;SDS011;3800;48.922;9.444;2023-05-29T11:36:57;4.40;;;3.20;;
7517;SDS011;3800;48.922;9.444;2023-05-29T11:39:26;4.00;;;3.17;;
7517;SDS011;3800;48.922;9.444;2023-05-29T11:41:54;3.50;;;2.87;;
7517;SDS011;3800;48.922;9.444;2023-05-29T11:44:24;5.07;;;3.30;;
7517;SDS011;3800;48.922;9.444;2023-05-29T11:49:35;4.27;;;3.10;;
7517;SDS011;3800;48.922;9.444;2023-05-29T11:52:08;4.53;;;2.90;;
7517;SDS011;3800;48.922;9.444;2023-05-29T11:54:37;4.17;;;3.20;;
7517;SDS011;3800;48.922;9.444;2023-05-29T11:57:05;3.23;;;2.80;;
7517;SDS011;3800;48.922;9.444;2023-05-29T11:59:34;5.90;;;3.50;;
7517;SDS011;3800;48.922;9.444;2023-05-29T12:02:02;6.57;;;3.30;;
7517;SDS011;3800;48.922;9.444;2023-05-29T12:04:31;6.63;;;3.43;;
7517;SDS011;3800;48.922;9.444;2023-05-29T12:06:59;6.73;;;3.70;;
7517;SDS011;3800;48.922;9.444;2023-05-29T12:09:28;6.17;;;2.70;;
7517;SDS011;3800;48.922;9.444;2023-05-29T12:12:02;3.40;;;2.90;;
7517;SDS011;3800;48.922;9.444;2023-05-29T12:14:30;3.17;;;2.80;;
7517;SDS011;3800;48.922;9.444;2023-05-29T12:16:58;4.47;;;3.10;;
7517;SDS011;3800;48.922;9.444;2023-05-29T12:19:28;5.33;;;3.00;;
7517;SDS011;3800;48.922;9.444;2023-05-29T12:21:56;4.43;;;3.17;;
7517;SDS011;3800;48.922;9.444;2023-05-29T12:24:24;5.10;;;3.20;;
7517;SDS011;3800;48.922;9.444;2023-05-29T12:26:52;5.13;;;3.10;;
7517;SDS011;3800;48.922;9.444;2023-05-29T12:29:29;3.97;;;3.20;;
7517;SDS011;3800;48.922;9.444;2023-05-29T12:31:57;4.63;;;3.00;;
7517;SDS011;3800;48.922;9.444;2023-05-29T12:34:17;4.70;;;3.13;;
7517;SDS011;3800;48.922;9.444;2023-05-29T12:36:45;3.73;;;2.63;;
7517;SDS011;3800;48.922;9.444;2023-05-29T12:39:14;3.93;;;3.20;;
7517;SDS011;3800;48.922;9.444;2023-05-29T12:41:42;5.50;;;3.10;;
7517;SDS011;3800;48.922;9.444;2023-05-29T12:44:10;4.93;;;3.17;;
7517;SDS011;3800;48.922;9.444;2023-05-29T12:46:39;3.87;;;3.00;;
7517;SDS011;3800;48.922;9.444;2023-05-29T12:49:11;5.90;;;3.03;;
7517;SDS011;3800;48.922;9.444;2023-05-29T12:51:40;4.63;;;3.30;;
7517;SDS011;3800;48.922;9.444;2023-05-29T12:54:09;3.70;;;2.87;;
7517;SDS011;3800;48.922;9.444;2023-05-29T12:56:38;4.90;;;3.07;;
7517;SDS011;3800;48.922;9.444;2023-05-29T12:59:07;3.50;;;3.10;;
7517;SDS011;3800;48.922;9.444;2023-05-29T13:01:36;3.90;;;3.13;;
7517;SDS011;3800;48.922;9.444;2023-05-29T13:04:04;4.77;;;3.17;;
7517;SDS011;3800;48.922;9.444;2023-05-29T13:06:34;5.60;;;3.07;;
7517;SDS011;3800;48.922;9.444;2023-05-29T13:09:02;4.20;;;3.00;;
7517;SDS011;3800;48.922;9.444;2023-05-29T13:11:30;4.27;;;2.73;;
7517;SDS011;3800;48.922;9.444;2023-05-29T13:13:58;4.43;;;3.00;;
7517;SDS011;3800;48.922;9.444;2023-05-29T13:16:27;4.63;;;2.97;;
7517;SDS011;3800;48.922;9.444;2023-05-29T13:18:55;3.93;;;2.97;;
7517;SDS011;3800;48.922;9.444;2023-05-29T13:21:23;6.07;;;3.23;;
7517;SDS011;3800;48.922;9.444;2023-05-29T13:23:52;5.07;;;3.13;;
7517;SDS011;3800;48.922;9.444;2023-05-29T13:26:20;5.07;;;2.90;;
7517;SDS011;3800;48.922;9.444;2023-05-29T13:28:49;4.23;;;3.03;;
7517;SDS011;3800;48.922;9.444;2023-05-29T13:31:17;3.93;;;2.83;;
7517;SDS011;3800;48.922;9.444;2023-05-29T13:33:46;4.87;;;2.70;;
7517;SDS011;3800;48.922;9.444;2023-05-29T13:36:14;4.30;;;3.07;;
7517;SDS011;3800;48.922;9.444;2023-05-29T13:38:43;4.23;;;2.90;;
7517;SDS011;3800;48.922;9.444;2023-05-29T13:41:12;4.93;;;3.10;;
7517;SDS011;3800;48.922;9.444;2023-05-29T13:43:40;5.93;;;2.90;;
7517;SDS011;3800;48.922;9.444;2023-05-29T13:46:09;6.57;;;3.20;;
7517;SDS011;3800;48.922;9.444;2023-05-29T13:48:37;5.83;;;3.43;;
7517;SDS011;3800;48.922;9.444;2023-05-29T13:51:05;3.90;;;2.80;;
7517;SDS011;3800;48.922;9.444;2023-05-29T13:53:34;4.00;;;3.27;;
7517;SDS011;3800;48.922;9.444;2023-05-29T13:56:03;4.03;;;2.80;;
7517;SDS011;3800;48.922;9.444;2023-05-29T13:58:31;4.57;;;3.30;;
7517;SDS011;3800;48.922;9.444;2023-05-29T14:00:59;5.43;;;2.80;;
7517;SDS011;3800;48.922;9.444;2023-05-29T14:03:28;3.30;;;3.00;;
7517;SDS011;3800;48.922;9.444;2023-05-29T14:05:57;6.03;;;2.80;;
7517;SDS011;3800;48.922;9.444;2023-05-29T14:08:26;3.40;;;3.00;;
7517;SDS011;3800;48.922;9.444;2023-05-29T14:10:54;3.80;;;2.73;;
7517;SDS011;3800;48.922;9.444;2023-05-29T14:13:23;3.90;;;2.60;;
7517;SDS011;3800;48.922;9.444;2023-05-29T14:15:51;4.27;;;2.90;;
7517;SDS011;3800;48.922;9.444;2023-05-29T14:18:19;4.20;;;2.67;;
7517;SDS011;3800;48.922;9.444;2023-05-29T14:20:48;3.83;;;2.87;;
7517;SDS011;3800;48.922;9.444;2023-05-29T14:23:16;3.63;;;3.10;;
7517;SDS011;3800;48.922;9.444;2023-05-29T14:25:44;4.87;;;2.80;;
7517;SDS011;3800;48.922;9.444;2023-05-29T14:28:13;5.30;;;2.90;;
7517;SDS011;3800;48.922;9.444;2023-05-29T14:30:41;3.60;;;2.73;;
7517;SDS011;3800;48.922;9.444;2023-05-29T14:33:10;5.40;;;2.80;;
7517;SDS011;3800;48.922;9.444;2023-05-29T14:35:38;3.40;;;2.70;;
7517;SDS011;3800;48.922;9.444;2023-05-29T14:38:06;5.50;;;3.27;;
7517;SDS011;3800;48.922;9.444;2023-05-29T14:40:35;5.60;;;4.37;;
7517;SDS011;3800;48.922;9.444;2023-05-29T14:43:03;6.00;;;3.10;;
7517;SDS011;3800;48.922;9.444;2023-05-29T14:45:31;3.73;;;3.00;;
7517;SDS011;3800;48.922;9.444;2023-05-29T14:47:59;3.93;;;3.03;;
7517;SDS011;3800;48.922;9.444;2023-05-29T14:50:28;3.47;;;2.60;;
7517;SDS011;3800;48.922;9.444;2023-05-29T14:52:56;4.27;;;2.90;;
7517;SDS011;3800;48.922;9.444;2023-05-29T14:55:24;5.37;;;3.13;;
7517;SDS011;3800;48.922;9.444;2023-05-29T14:57:52;4.47;;;3.10;;
7517;SDS011;3800;48.922;9.444;2023-05-29T15:00:21;4.80;;;3.00;;
7517;SDS011;3800;48.922;9.444;2023-05-29T15:02:49;3.50;;;2.70;;
7517;SDS011;3800;48.922;9.444;2023-05-29T15:05:17;3.33;;;2.67;;
7517;SDS011;3800;48.922;9.444;2023-05-29T15:07:45;8.63;;;3.30;;
7517;SDS011;3800;48.922;9.444;2023-05-29T15:10:14;4.10;;;2.83;;
7517;SDS011;3800;48.922;9.444;2023-05-29T15:12:42;5.50;;;2.97;;
7517;SDS011;3800;48.922;9.444;2023-05-29T15:15:10;3.23;;;2.73;;
7517;SDS011;3800;48.922;9.444;2023-05-29T15:17:43;4.63;;;2.77;;
7517;SDS011;3800;48.922;9.444;2023-05-29T15:20:11;3.80;;;2.80;;
7517;SDS011;3800;48.922;9.444;2023-05-29T15:22:39;4.50;;;2.40;;
7517;SDS011;3800;48.922;9.444;2023-05-29T15:25:08;5.17;;;3.60;;
7517;SDS011;3800;48.922;9.444;2023-05-29T15:27:37;4.93;;;3.30;;
7517;SDS011;3800;48.922;9.444;2023-05-29T15:30:12;3.43;;;2.90;;
7517;SDS011;3800;48.922;9.444;2023-05-29T15:32:41;4.90;;;2.87;;
7517;SDS011;3800;48.922;9.444;2023-05-29T15:35:09;3.53;;;3.00;;
7517;SDS011;3800;48.922;9.444;2023-05-29T15:37:38;2.73;;;2.53;;